Time;durP1;ratioP1;P1;durP2;ratioP2;P2;SDS_P1;SDS_P2;PMS_P1;PMS_P2;Temp;Humidity;BMP_temperature;BMP_pressure;BME280_temperature;BME280_humidity;BME280_pressure;Samples;Min_cycle;Max_cycle;Signal;HPM_P1;HPM_P2
2022/07/05 15:04:35;;;;;;;5.28;4.95;;;45.10;32.20;;;35.68;22.99;95899.88;5067869;28;21056;-50
2022/07/05 15:07:01;;;;;;;6.97;5.20;;;45.40;27.50;;;35.82;20.83;95895.28;5046380;28;20046;-50
2022/07/05 15:09:30;;;;;;;6.85;6.35;;;46.40;25.10;;;35.83;21.57;95902.41;5029843;28;20021;-51
2022/07/05 15:11:55;;;;;;;5.88;5.38;;;47.40;23.10;;;35.95;21.08;95899.03;5045833;28;20178;-52
2022/07/05 15:14:27;;;;;;;7.22;6.72;;;48.20;21.80;;;36.13;21.08;95895.97;5046133;28;20017;-49
2022/07/05 15:16:57;;;;;;;5.57;5.18;;;49.10;20.60;;;36.70;20.59;95896.84;5029420;28;20036;-50
2022/07/05 15:19:29;;;;;;;6.80;6.28;;;49.40;19.80;;;36.55;21.28;95899.94;5047618;28;20044;-50
2022/07/05 15:21:57;;;;;;;7.45;7.05;;;50.10;19.40;;;36.75;21.22;95888.03;5046721;28;20025;-51
2022/07/05 15:24:38;;;;;;;6.55;6.00;;;50.70;18.80;;;36.59;21.58;95892.31;5047535;28;20521;-51
2022/07/05 15:27:37;;;;;;;4.15;3.63;;;51.10;18.20;;;36.27;21.28;95884.63;5045924;28;20032;-48
2022/07/05 15:30:07;;;;;;;3.53;3.22;;;49.00;18.60;;;35.53;22.59;95886.66;5047201;28;20032;-46
2022/07/05 15:32:36;;;;;;;4.55;4.15;;;47.50;18.90;;;35.42;22.95;95890.38;5046268;28;20023;-47
2022/07/05 15:35:02;;;;;;;6.40;4.50;;;48.20;18.70;;;35.26;22.78;95886.66;5045743;28;20077;-48
2022/07/05 15:37:30;;;;;;;6.55;6.15;;;49.30;18.00;;;35.75;22.97;95887.88;5035396;28;20034;-50
2022/07/05 15:39:58;;;;;;;7.40;6.70;;;50.20;17.50;;;36.00;22.49;95884.69;5046782;28;20029;-52
2022/07/05 15:42:25;;;;;;;6.10;5.63;;;51.00;17.10;;;36.01;22.00;95875.19;5018687;28;20035;-51
2022/07/05 15:44:56;;;;;;;4.10;3.80;;;51.30;16.60;;;35.98;21.67;95876.03;5025240;28;20033;-48
2022/07/05 15:47:22;;;;;;;5.70;4.30;;;49.80;16.80;;;35.63;21.92;95883.75;5012969;28;20053;-46
2022/07/05 15:49:50;;;;;;;5.38;4.95;;;49.30;17.00;;;35.36;21.80;95877.44;5023859;28;20183;-50
2022/07/05 15:52:17;;;;;;;5.40;4.90;;;49.70;16.60;;;35.79;20.99;95877.53;5019854;28;20468;-57
2022/07/05 15:54:58;;;;;;;6.00;5.50;;;50.30;16.20;;;36.44;20.39;95871.59;5019431;28;20028;-57
2022/07/05 15:57:26;;;;;;;6.97;6.55;;;51.10;16.20;;;36.47;20.35;95876.28;5023854;28;20116;-54
2022/07/05 15:59:56;;;;;;;6.28;5.88;;;51.70;15.70;;;36.58;19.75;95876.88;5025627;28;20045;-56
2022/07/05 16:02:28;;;;;;;8.00;7.60;;;52.30;15.20;;;36.64;19.18;95865.31;5024941;28;20512;-55
2022/07/05 16:04:54;;;;;;;8.80;8.05;;;52.80;15.00;;;36.63;18.77;95864.50;5022082;28;20025;-56
2022/07/05 16:07:20;;;;;;;7.53;7.13;;;53.10;14.50;;;37.03;18.92;95870.00;5019458;28;20025;-53
2022/07/05 16:09:53;;;;;;;8.05;7.53;;;53.50;14.30;;;37.14;18.72;95869.75;5025017;28;20094;-53
2022/07/05 16:12:20;;;;;;;7.38;6.97;;;53.90;14.00;;;37.12;18.69;95872.97;5024524;28;20044;-56
2022/07/05 16:14:52;;;;;;;9.05;8.45;;;54.10;13.80;;;37.41;17.66;95864.75;5011871;28;20017;-55
2022/07/05 16:17:18;;;;;;;8.40;7.80;;;54.50;13.70;;;37.35;17.70;95860.94;5006575;28;20025;-53
2022/07/05 16:19:53;;;;;;;9.00;7.80;;;54.70;13.30;;;37.24;18.51;95863.19;5011719;28;20468;-56
2022/07/05 16:22:19;;;;;;;7.80;7.38;;;54.90;13.20;;;36.52;18.87;95863.97;5012623;28;20111;-54
2022/07/05 16:24:57;;;;;;;7.53;7.13;;;54.90;13.10;;;36.61;18.67;95864.16;5008275;28;20026;-53
2022/07/05 16:27:26;;;;;;;8.18;7.63;;;54.80;13.00;;;36.36;18.48;95862.66;5009265;28;20036;-54
2022/07/05 16:29:54;;;;;;;8.10;7.68;;;54.80;12.90;;;36.53;18.23;95859.97;5013060;28;20036;-54
2022/07/05 16:32:23;;;;;;;8.40;7.93;;;54.70;12.80;;;36.58;18.81;95860.25;5008178;28;20078;-51
2022/07/05 16:34:49;;;;;;;9.07;8.57;;;54.80;12.70;;;36.86;18.39;95848.97;5000559;28;20033;-49
2022/07/05 16:37:15;;;;;;;8.95;8.35;;;54.80;12.80;;;36.82;18.96;95858.16;5008530;28;20078;-53
2022/07/05 16:39:40;;;;;;;7.97;7.45;;;54.90;12.70;;;36.83;18.33;95856.16;4991827;28;20027;-52
2022/07/05 16:42:09;;;;;;;9.57;9.07;;;54.90;12.50;;;37.22;18.65;95858.06;4989710;28;20388;-51
2022/07/05 16:44:35;;;;;;;8.23;7.63;;;55.20;12.60;;;36.37;19.28;95855.88;5007432;28;20036;-52
2022/07/05 16:47:01;;;;;;;8.88;8.30;;;55.20;12.50;;;36.57;18.18;95855.91;5023954;28;20401;-52
2022/07/05 16:49:27;;;;;;;8.43;8.02;;;55.10;12.40;;;36.74;18.03;95851.19;5030696;28;20116;-52
2022/07/05 16:51:53;;;;;;;8.80;8.18;;;55.10;12.30;;;36.72;17.84;95856.38;5009748;28;20086;-51
2022/07/05 16:54:22;;;;;;;7.30;6.80;;;55.30;12.40;;;36.51;18.27;95856.81;5011274;28;20021;-49
2022/07/05 16:56:50;;;;;;;8.07;7.55;;;55.10;12.10;;;36.66;17.86;95846.22;5009130;28;20044;-51
2022/07/05 16:59:25;;;;;;;9.10;8.43;;;55.20;12.10;;;36.46;18.77;95852.53;5006505;28;20049;-51
2022/07/05 17:01:51;;;;;;;8.73;8.23;;;55.30;12.10;;;36.59;18.24;95861.03;5005643;28;20060;-51
2022/07/05 17:04:25;;;;;;;8.43;7.95;;;55.40;12.00;;;36.71;18.25;95854.03;5003867;28;20033;-54
2022/07/05 17:06:51;;;;;;;8.45;8.02;;;55.40;11.80;;;36.28;19.19;95847.34;4990315;28;20034;-50
2022/07/05 17:09:17;;;;;;;7.07;6.68;;;55.30;11.90;;;36.11;18.79;95842.94;5004172;28;20444;-51
2022/07/05 17:11:43;;;;;;;5.97;5.63;;;55.30;11.90;;;35.97;19.19;95843.97;5011986;28;20071;-52
2022/07/05 17:14:09;;;;;;;4.35;4.13;;;55.10;11.90;;;35.39;19.20;95848.91;5022281;28;20020;-49
2022/07/05 17:16:34;;;;;;;3.20;2.92;;;54.80;11.80;;;34.95;19.77;95847.97;5029629;28;20024;-53
2022/07/05 17:19:00;;;;;;;2.55;2.20;;;53.10;11.90;;;34.01;20.35;95841.97;5013784;28;20032;-53
2022/07/05 17:21:29;;;;;;;2.60;2.15;;;50.30;12.70;;;33.18;20.94;95841.88;5013944;28;20433;-50
2022/07/05 17:24:00;;;;;;;2.30;2.13;;;47.50;13.60;;;32.70;21.71;95846.09;5031257;28;20545;-50
2022/07/05 17:26:28;;;;;;;4.13;2.22;;;45.00;14.60;;;32.12;22.21;95841.97;5028734;28;20065;-51
2022/07/05 17:28:54;;;;;;;1.73;1.63;;;42.80;15.50;;;31.53;23.07;95850.75;5030352;28;20032;-50
2022/07/05 17:31:33;;;;;;;3.03;1.70;;;41.00;16.40;;;30.74;23.74;95849.03;5031183;28;20079;-51
2022/07/05 17:34:00;;;;;;;1.88;1.35;;;39.50;17.20;;;30.11;24.31;95848.38;5029965;28;20039;-48
2022/07/05 17:36:29;;;;;;;1.50;1.40;;;38.10;17.90;;;29.62;24.88;95855.94;5031044;28;20071;-50
2022/07/05 17:38:58;;;;;;;1.98;1.40;;;37.00;18.70;;;29.20;25.61;95856.34;5016476;28;20040;-49
2022/07/05 17:41:26;;;;;;;1.50;1.40;;;36.00;19.30;;;28.75;26.16;95859.00;5005289;28;20017;-49
2022/07/05 17:43:59;;;;;;;2.55;1.50;;;35.10;19.90;;;28.52;26.57;95859.16;5007067;28;20037;-49
2022/07/05 17:46:29;;;;;;;1.55;1.35;;;34.40;20.50;;;28.20;26.71;95861.47;4999505;28;20068;-49
2022/07/05 17:48:58;;;;;;;2.00;1.42;;;33.70;20.90;;;27.91;27.46;95861.09;5006925;28;20025;-50
2022/07/05 17:51:29;;;;;;;2.53;1.35;;;33.20;21.50;;;27.65;27.86;95863.81;4991126;28;20416;-49
2022/07/05 17:53:57;;;;;;;2.67;1.17;;;32.60;21.90;;;27.37;28.36;95867.69;5006487;28;20026;-48
2022/07/05 17:56:25;;;;;;;3.10;1.30;;;32.20;22.30;;;27.15;28.89;95863.78;5005525;28;20472;-50
2022/07/05 17:58:51;;;;;;;2.53;1.00;;;31.80;22.70;;;26.96;28.93;95872.03;5011008;28;20132;-48
2022/07/05 18:01:23;;;;;;;1.65;1.02;;;31.50;23.10;;;26.79;29.30;95872.47;5009748;28;20704;-50
2022/07/05 18:03:49;;;;;;;3.60;1.30;;;31.20;23.50;;;26.64;29.99;95872.22;5008472;28;20140;-53
2022/07/05 18:06:20;;;;;;;1.90;1.40;;;30.90;23.70;;;26.46;29.98;95879.25;5010254;28;20105;-53
2022/07/05 18:08:49;;;;;;;1.77;1.30;;;30.70;24.20;;;26.32;30.59;95874.28;5009653;28;20029;-55
2022/07/05 18:11:21;;;;;;;1.33;1.17;;;30.40;24.30;;;26.15;30.60;95877.44;5011204;28;20084;-53
2022/07/05 18:13:53;;;;;;;1.88;1.10;;;30.20;24.70;;;25.93;30.64;95876.97;5009546;28;20033;-55
2022/07/05 18:16:20;;;;;;;1.80;1.30;;;30.00;24.80;;;25.77;30.64;95876.97;5009234;28;20029;-54
2022/07/05 18:18:48;;;;;;;2.08;1.40;;;29.80;25.00;;;25.59;30.86;95871.09;5010941;28;20029;-50
2022/07/05 18:21:20;;;;;;;2.92;1.20;;;29.60;25.20;;;25.51;31.63;95874.84;5011081;28;20029;-53
2022/07/05 18:23:48;;;;;;;1.85;1.30;;;29.50;25.50;;;25.43;32.48;95886.69;5008732;28;20021;-50
2022/07/05 18:26:19;;;;;;;3.45;1.27;;;29.30;25.80;;;25.29;33.19;95880.88;5002043;28;20029;-49
2022/07/05 18:28:45;;;;;;;2.35;1.40;;;29.10;26.00;;;25.12;32.77;95888.28;5003200;28;20025;-51
2022/07/05 18:31:11;;;;;;;2.47;1.30;;;29.00;26.30;;;24.98;33.77;95878.94;5025275;28;20025;-52
2022/07/05 18:33:38;;;;;;;3.17;1.30;;;28.80;26.50;;;24.85;34.38;95876.28;4992130;28;20040;-49
2022/07/05 18:36:05;;;;;;;2.70;1.15;;;28.70;26.90;;;24.74;35.95;95880.63;5013862;28;20766;-47
2022/07/05 18:38:30;;;;;;;2.17;1.30;;;28.50;27.40;;;24.43;36.09;95876.69;5010904;28;20146;-48
2022/07/05 18:41:06;;;;;;;1.73;0.90;;;28.40;27.70;;;24.11;38.56;95877.69;5011792;28;20108;-46
2022/07/05 18:43:32;;;;;;;4.78;1.30;;;28.20;28.20;;;23.75;39.89;95882.03;5013826;28;20507;-49
2022/07/05 18:46:01;;;;;;;2.72;1.13;;;28.00;29.20;;;23.50;41.75;95894.81;5027683;28;20111;-47
2022/07/05 18:48:27;;;;;;;2.58;1.13;;;27.70;29.50;;;23.05;44.09;95893.78;5027934;28;20020;-47
2022/07/05 18:50:57;;;;;;;1.30;1.20;;;27.50;30.00;;;22.73;44.68;95905.44;5028068;28;20021;-47
2022/07/05 18:53:29;;;;;;;1.20;1.10;;;27.20;30.80;;;22.37;45.16;95896.78;5027051;28;20044;-49
2022/07/05 18:55:55;;;;;;;1.95;1.00;;;26.90;31.30;;;22.06;45.56;95897.19;5005576;28;20802;-46
2022/07/05 18:58:21;;;;;;;2.20;1.20;;;26.60;31.50;;;21.85;45.71;95899.88;5001074;28;20155;-46
2022/07/05 19:00:50;;;;;;;3.35;1.08;;;26.30;32.10;;;21.60;46.21;95909.75;5022826;28;20025;-46
2022/07/05 19:03:15;;;;;;;1.52;0.95;;;26.00;32.60;;;21.34;47.32;95907.16;5012004;28;20477;-48
2022/07/05 19:13:40;;;;;;;2.75;1.10;;;25.70;33.10;;;21.21;47.91;95906.22;5013793;28;20067;-48
2022/07/05 19:14:01;;;;;;;4.95;1.20;;;25.00;34.80;;;20.53;50.24;95902.59;5024357;28;20097;-47
2022/07/05 19:16:27;;;;;;;3.45;1.10;;;24.70;35.60;;;20.34;51.61;95906.38;4999398;28;20033;-49
2022/07/05 19:18:53;;;;;;;1.45;0.90;;;24.50;36.10;;;20.23;51.58;95913.22;5007580;28;20102;-53
2022/07/05 19:21:21;;;;;;;1.90;0.93;;;24.30;36.70;;;20.04;52.42;95908.13;5009179;28;20036;-49
2022/07/05 19:23:47;;;;;;;2.38;0.90;;;24.10;37.20;;;19.90;52.79;95906.66;5007001;28;20108;-52
2022/07/05 19:26:21;;;;;;;3.47;1.30;;;23.90;37.60;;;19.68;52.34;95908.41;5007694;28;20547;-51
2022/07/05 19:28:53;;;;;;;5.43;0.85;;;23.70;38.10;;;19.43;53.38;95909.88;5008873;28;20033;-49
2022/07/05 19:31:19;;;;;;;1.98;1.02;;;23.50;38.30;;;19.41;49.75;95902.09;5008913;28;20096;-50
2022/07/05 19:33:45;;;;;;;3.72;1.67;;;23.40;38.20;;;19.54;49.92;95910.38;5004451;28;20660;-50
2022/07/05 19:36:11;;;;;;;3.00;1.00;;;23.30;38.30;;;19.63;50.48;95913.91;4987968;28;20092;-48
2022/07/05 19:38:39;;;;;;;1.73;1.27;;;23.20;38.70;;;19.58;52.89;95919.44;5001577;28;20024;-48
2022/07/05 19:41:07;;;;;;;4.15;1.10;;;23.20;39.00;;;19.41;53.59;95922.91;4998320;28;20060;-47
2022/07/05 19:43:36;;;;;;;4.47;1.30;;;23.10;39.50;;;19.32;53.11;95930.16;5007500;28;20564;-47
2022/07/05 19:46:04;;;;;;;4.15;1.00;;;23.10;39.70;;;19.18;52.84;95927.59;5008771;28;20071;-46
2022/07/05 19:48:30;;;;;;;2.97;1.10;;;23.00;39.80;;;19.07;53.96;95928.94;5008543;28;20085;-47
2022/07/05 19:50:56;;;;;;;3.95;1.00;;;22.80;40.00;;;18.92;53.85;95935.53;5012717;28;20017;-49
2022/07/05 19:53:22;;;;;;;1.33;1.00;;;22.70;40.20;;;18.74;53.71;95934.66;5010748;28;20025;-53
2022/07/05 19:55:51;;;;;;;3.80;0.80;;;22.60;40.40;;;18.66;54.64;95936.13;4991675;28;20026;-48
2022/07/05 19:58:17;;;;;;;1.67;1.10;;;22.50;40.70;;;18.54;54.50;95944.00;4994613;28;20026;-47
2022/07/05 20:00:45;;;;;;;4.95;1.10;;;22.40;40.80;;;18.48;55.07;95939.81;5003403;28;20417;-48
2022/07/05 20:03:11;;;;;;;1.95;0.90;;;22.30;41.20;;;18.36;54.05;95947.66;5010925;28;20068;-48
2022/07/05 20:05:37;;;;;;;2.28;1.17;;;22.20;41.20;;;18.34;55.70;95952.56;5009146;28;20044;-48
2022/07/05 20:08:06;;;;;;;1.92;0.98;;;22.10;41.50;;;18.27;53.47;95953.78;5011082;28;20029;-48
2022/07/05 20:10:44;;;;;;;1.63;1.00;;;22.00;41.60;;;18.22;56.15;95959.28;5012149;28;20108;-52
2022/07/05 20:13:14;;;;;;;1.25;0.80;;;21.90;42.30;;;18.12;56.61;95961.41;5013506;28;20735;-49
2022/07/05 20:15:46;;;;;;;7.47;1.45;;;21.80;42.40;;;17.98;56.54;95958.72;5009132;28;20026;-50
2022/07/05 20:18:21;;;;;;;2.67;0.95;;;21.70;42.40;;;17.93;57.99;95965.03;5011607;28;20388;-52
2022/07/05 20:20:50;;;;;;;1.00;0.90;;;21.60;42.90;;;17.82;56.98;95968.25;5010082;28;20025;-54
2022/07/05 20:23:16;;;;;;;2.67;1.10;;;21.60;43.10;;;17.82;57.50;95974.44;5012813;28;20033;-50
2022/07/05 20:25:42;;;;;;;1.40;0.90;;;21.40;43.10;;;17.78;56.42;95974.22;5012966;28;20071;-51
2022/07/05 20:28:11;;;;;;;2.90;1.10;;;21.40;43.30;;;17.75;58.03;95974.81;5012634;28;20029;-50
2022/07/05 20:30:44;;;;;;;0.80;0.80;;;21.40;43.70;;;17.74;57.26;95980.50;4995550;28;20476;-49
2022/07/05 20:33:15;;;;;;;1.73;0.90;;;21.30;44.00;;;17.69;56.47;95984.09;4995542;28;20508;-50
2022/07/05 20:35:50;;;;;;;3.03;0.98;;;21.30;43.90;;;17.65;59.31;95988.47;5029730;28;20021;-53
2022/07/05 20:38:18;;;;;;;3.83;1.00;;;21.20;44.10;;;17.59;57.37;95981.59;5032065;28;20036;-49
2022/07/05 20:40:44;;;;;;;1.60;0.90;;;21.20;44.30;;;17.58;55.55;95988.88;4998407;28;20381;-53
2022/07/05 20:43:19;;;;;;;2.75;1.08;;;21.20;44.00;;;17.62;56.89;95991.78;4991623;28;20034;-49
2022/07/05 20:45:45;;;;;;;1.88;1.10;;;21.20;44.30;;;17.62;55.70;95996.38;5007348;28;20041;-48
2022/07/05 20:48:14;;;;;;;1.77;1.00;;;21.10;44.00;;;17.63;56.77;96001.44;5006948;28;20449;-49
2022/07/05 20:50:40;;;;;;;2.58;0.90;;;21.10;44.30;;;17.64;57.16;96002.22;5011058;28;20021;-48
2022/07/05 20:53:11;;;;;;;1.88;1.05;;;21.10;44.30;;;17.63;56.13;96003.34;5009132;28;20040;-51
2022/07/05 20:55:37;;;;;;;3.55;1.10;;;21.10;44.40;;;17.67;55.86;96005.13;5012080;28;20139;-49
2022/07/05 20:58:09;;;;;;;1.85;1.00;;;21.10;44.30;;;17.67;55.43;96007.03;5012173;28;20029;-50
2022/07/05 21:00:35;;;;;;;1.27;1.00;;;21.10;44.40;;;17.65;55.29;96015.41;5008011;28;20038;-50
2022/07/05 21:03:04;;;;;;;2.13;0.95;;;21.10;44.20;;;17.65;56.04;96007.34;5021755;28;20098;-49
2022/07/05 21:05:30;;;;;;;2.55;1.00;;;21.10;44.30;;;17.67;56.42;96010.50;4995613;28;20025;-47
2022/07/05 21:07:56;;;;;;;2.53;0.80;;;21.10;44.40;;;17.65;56.27;96003.84;5017801;28;20414;-49
2022/07/05 21:10:22;;;;;;;3.58;0.95;;;21.10;44.40;;;17.65;55.64;96014.63;5000720;28;20032;-49
2022/07/05 21:12:51;;;;;;;2.35;0.90;;;21.10;44.40;;;17.68;55.57;96012.13;5005890;28;20046;-49
2022/07/05 21:15:19;;;;;;;2.83;0.90;;;21.10;44.50;;;17.66;56.97;96017.00;5012017;28;20032;-47
2022/07/05 21:17:48;;;;;;;2.42;1.20;;;21.10;44.60;;;17.52;59.82;96008.13;5011338;28;20026;-48
2022/07/05 21:20:17;;;;;;;1.40;1.20;;;21.10;45.00;;;17.40;60.53;96022.06;5006640;28;20029;-48
2022/07/05 21:22:49;;;;;;;2.47;1.02;;;21.00;45.30;;;17.27;60.96;96015.56;5021131;28;20051;-49
2022/07/05 21:25:15;;;;;;;3.83;1.27;;;21.00;45.80;;;17.22;62.07;96022.94;5011889;28;20026;-53
2022/07/05 21:27:41;;;;;;;2.78;1.25;;;20.90;45.80;;;17.08;63.24;96022.91;5004300;28;20055;-48
2022/07/05 21:30:08;;;;;;;1.80;1.33;;;20.80;46.20;;;17.00;64.16;96035.13;5009966;28;20075;-49
2022/07/05 21:32:34;;;;;;;4.15;1.75;;;20.80;46.60;;;16.82;65.26;96027.91;5011196;28;20116;-47
2022/07/05 21:35:07;;;;;;;1.92;1.30;;;20.60;47.00;;;16.68;64.09;96035.09;5007018;28;20113;-49
2022/07/05 21:37:36;;;;;;;2.03;1.17;;;20.50;47.40;;;16.62;65.13;96037.84;5011142;28;20025;-44
2022/07/05 21:40:04;;;;;;;2.25;1.00;;;20.50;47.70;;;16.52;66.43;96034.53;5011856;28;20037;-44
2022/07/05 21:42:30;;;;;;;2.20;1.40;;;20.40;47.90;;;16.38;66.92;96032.53;5010222;28;20021;-45
2022/07/05 21:44:58;;;;;;;3.05;1.45;;;20.30;48.20;;;16.27;67.46;96027.59;5011473;28;20430;-44
2022/07/05 21:47:24;;;;;;;5.03;1.40;;;20.20;48.60;;;16.21;67.87;96029.56;5011100;28;20120;-43
2022/07/05 21:49:55;;;;;;;1.35;1.10;;;20.10;48.70;;;16.16;67.25;96029.63;5011685;28;20124;-44
2022/07/05 21:52:21;;;;;;;2.17;1.40;;;20.00;49.00;;;16.11;67.59;96027.81;5010254;28;20083;-45
2022/07/05 21:54:52;;;;;;;2.85;1.20;;;19.90;49.20;;;16.08;68.14;96033.75;5007252;28;20025;-46
2022/07/05 21:57:21;;;;;;;2.35;1.50;;;19.90;49.60;;;16.08;68.16;96038.34;5009792;28;20040;-44
2022/07/05 22:05:24;;;;;;;1.58;1.33;;;19.70;50.40;;;15.92;67.91;96043.91;5009049;28;20510;-44
